createdAt,value
2023-01-15T00:00:44.708Z,27.33
2023-01-15T00:01:46.481Z,24.25
2023-01-15T00:02:48.229Z,26.33
2023-01-15T00:03:50.365Z,27.30
2023-01-15T00:04:52.421Z,25.30
2023-01-15T00:05:54.135Z,28.48
2023-01-15T00:06:55.974Z,24.67
2023-01-15T00:07:57.710Z,23.67
2023-01-15T00:08:59.474Z,28.55
2023-01-15T00:10:01.237Z,27.67
2023-01-15T00:11:06.107Z,24.75
2023-01-15T00:12:07.872Z,26.52
2023-01-15T00:13:09.625Z,25.70
2023-01-15T00:14:12.960Z,27.88
2023-01-15T00:15:14.789Z,26.87
2023-01-15T00:16:20.239Z,28.27
2023-01-15T00:17:21.940Z,26.05
2023-01-15T00:18:23.616Z,28.40
2023-01-15T00:19:25.350Z,31.60
2023-01-15T00:20:27.211Z,27.25
2023-01-15T00:21:29.295Z,26.17
2023-01-15T00:22:31.001Z,30.40
2023-01-15T00:23:33.577Z,28.92
2023-01-15T00:24:35.289Z,30.05
2023-01-15T00:25:37.057Z,31.03
2023-01-15T00:26:39.149Z,29.65
2023-01-15T00:27:40.880Z,27.23
2023-01-15T00:28:42.816Z,28.67
2023-01-15T00:29:44.538Z,31.45
2023-01-15T00:30:46.373Z,26.33
2023-01-15T00:31:58.435Z,31.10
2023-01-15T00:33:00.318Z,28.85
2023-01-15T00:34:02.646Z,31.75
2023-01-15T00:35:04.763Z,29.60
2023-01-15T00:36:06.585Z,31.63
2023-01-15T00:37:08.229Z,27.75
2023-01-15T00:38:09.999Z,28.63
2023-01-15T00:39:11.726Z,26.70
2023-01-15T00:40:15.115Z,24.55
2023-01-15T00:41:17.898Z,27.65
2023-01-15T00:42:19.580Z,28.60
2023-01-15T00:43:22.675Z,30.27
2023-01-15T00:44:24.400Z,27.73
2023-01-15T00:45:26.135Z,25.00
2023-01-15T00:46:28.011Z,28.37
2023-01-15T00:47:29.773Z,27.75
2023-01-15T00:48:32.806Z,27.15
2023-01-15T00:49:34.732Z,25.42
2023-01-15T00:50:36.490Z,27.08
2023-01-15T00:51:38.428Z,25.38
2023-01-15T00:52:40.669Z,26.95
2023-01-15T00:53:42.497Z,23.45
2023-01-15T00:54:44.290Z,25.05
2023-01-15T00:55:46.065Z,25.83
2023-01-15T00:56:47.761Z,28.20
2023-01-15T00:57:49.374Z,25.65
2023-01-15T00:58:51.139Z,27.55
2023-01-15T00:59:52.911Z,27.13
2023-01-15T01:00:59.330Z,27.05
2023-01-15T01:02:01.336Z,30.42
2023-01-15T01:03:03.266Z,24.33
2023-01-15T01:04:05.133Z,25.98
2023-01-15T01:05:07.148Z,24.98
2023-01-15T01:06:09.276Z,25.63
2023-01-15T01:07:11.155Z,26.13
2023-01-15T01:08:12.839Z,28.65
2023-01-15T01:09:16.003Z,27.35
2023-01-15T01:10:17.830Z,29.80
2023-01-15T01:11:23.000Z,27.15
2023-01-15T01:12:24.726Z,25.40
2023-01-15T01:13:26.495Z,27.38
2023-01-15T01:14:29.125Z,26.23
2023-01-15T01:15:33.873Z,25.73
2023-01-15T01:16:38.068Z,27.63
2023-01-15T01:17:39.779Z,25.43
2023-01-15T01:18:41.535Z,35.13
2023-01-15T01:19:43.320Z,26.13
2023-01-15T01:20:45.109Z,25.17
2023-01-15T01:21:48.248Z,26.75
2023-01-15T01:22:49.957Z,25.38
2023-01-15T01:23:51.887Z,25.92
2023-01-15T01:24:53.615Z,28.17
2023-01-15T01:25:55.329Z,22.80
2023-01-15T01:26:57.099Z,22.52
2023-01-15T01:27:58.745Z,27.93
2023-01-15T01:29:00.656Z,30.63
2023-01-15T01:30:02.698Z,26.88
2023-01-15T01:31:05.941Z,25.38
2023-01-15T01:32:07.698Z,30.33
2023-01-15T01:33:09.448Z,25.50
2023-01-15T01:34:12.713Z,29.65
2023-01-15T01:35:14.535Z,24.75
2023-01-15T01:36:16.536Z,24.90
2023-01-15T01:37:18.233Z,30.05
2023-01-15T01:38:19.909Z,26.20
2023-01-15T01:39:21.563Z,25.40
2023-01-15T01:40:23.401Z,25.52
2023-01-15T01:41:25.955Z,25.40
2023-01-15T01:42:27.847Z,26.25
2023-01-15T01:43:31.225Z,24.63
2023-01-15T01:44:32.847Z,32.00
2023-01-15T01:45:34.599Z,29.83
2023-01-15T01:46:36.908Z,26.02
2023-01-15T01:47:38.764Z,29.25
2023-01-15T01:48:40.469Z,27.00
2023-01-15T01:49:45.050Z,28.30
2023-01-15T01:50:49.904Z,26.77
2023-01-15T01:52:07.858Z,22.10
2023-01-15T01:53:23.144Z,24.17
2023-01-15T01:54:27.087Z,29.23
2023-01-15T01:55:30.857Z,24.73
2023-01-15T01:56:35.654Z,27.23
2023-01-15T01:57:38.633Z,21.38
2023-01-15T01:58:40.539Z,26.52
2023-01-15T01:59:43.076Z,32.13
2023-01-15T02:00:48.393Z,26.40
2023-01-15T02:01:50.952Z,30.95
2023-01-15T02:02:54.045Z,26.48
2023-01-15T02:03:56.332Z,29.73
2023-01-15T02:04:58.045Z,26.85
2023-01-15T02:06:02.942Z,34.50
2023-01-15T02:07:05.060Z,33.38
2023-01-15T02:08:07.704Z,27.20
2023-01-15T02:09:09.704Z,30.42
2023-01-15T02:10:16.196Z,30.57
2023-01-15T02:11:22.706Z,32.17
2023-01-15T02:12:34.689Z,30.58
2023-01-15T02:13:40.792Z,29.27
2023-01-15T02:14:54.269Z,28.60
2023-01-15T02:16:37.516Z,30.98
2023-01-15T02:17:56.000Z,26.83
2023-01-15T02:19:31.480Z,28.40
2023-01-15T02:20:51.078Z,27.27
2023-01-15T02:22:01.743Z,29.55
2023-01-15T02:23:15.379Z,26.80
2023-01-15T02:24:28.004Z,25.83
2023-01-15T02:25:32.770Z,24.63
2023-01-15T02:27:01.020Z,29.40
2023-01-15T02:28:24.194Z,27.90
2023-01-15T02:29:56.378Z,28.05
2023-01-15T02:31:16.145Z,26.70
2023-01-15T02:32:30.976Z,25.17
2023-01-15T02:34:00.236Z,25.52
2023-01-15T02:35:29.528Z,24.80
2023-01-15T02:36:35.847Z,23.97
2023-01-15T02:37:41.887Z,22.65
2023-01-15T02:38:49.534Z,25.35
2023-01-15T02:39:52.603Z,25.92
2023-01-15T02:40:58.386Z,30.67
2023-01-15T02:42:03.960Z,27.92
2023-01-15T02:43:07.979Z,29.58
2023-01-15T02:44:12.114Z,30.60
2023-01-15T02:45:22.154Z,28.45
2023-01-15T02:46:29.695Z,34.67
2023-01-15T02:47:35.599Z,30.17
2023-01-15T02:48:41.623Z,26.00
2023-01-15T02:49:45.511Z,27.33
2023-01-15T02:50:55.303Z,27.80
2023-01-15T02:52:12.906Z,31.15
2023-01-15T02:53:20.576Z,21.75
2023-01-15T02:54:24.724Z,29.80
2023-01-15T02:55:31.302Z,25.77
2023-01-15T02:56:35.684Z,31.90
2023-01-15T02:57:41.769Z,25.67
2023-01-15T02:59:20.418Z,28.97
2023-01-15T03:00:24.914Z,27.23
2023-01-15T03:01:40.839Z,24.80
2023-01-15T03:02:58.959Z,25.38
2023-01-15T03:04:29.278Z,24.40
2023-01-15T03:05:42.715Z,27.98
2023-01-15T03:06:51.795Z,25.40
2023-01-15T03:07:57.370Z,24.48
2023-01-15T03:08:59.727Z,22.63
2023-01-15T03:10:02.374Z,24.23
2023-01-15T03:11:06.718Z,24.97
2023-01-15T03:12:20.433Z,23.88
2023-01-15T03:13:48.427Z,29.30
2023-01-15T03:15:03.010Z,30.55
2023-01-15T03:16:11.504Z,31.85
2023-01-15T03:17:22.653Z,27.65
2023-01-15T03:18:25.966Z,27.27
2023-01-15T03:19:27.707Z,31.02
2023-01-15T03:20:30.455Z,27.80
2023-01-15T03:21:57.717Z,23.15
2023-01-15T03:23:07.434Z,27.37
2023-01-15T03:24:12.145Z,26.42
2023-01-15T03:25:22.168Z,26.17
2023-01-15T03:26:24.027Z,24.38
2023-01-15T03:27:25.905Z,23.15
2023-01-15T03:28:33.435Z,27.90
2023-01-15T03:29:40.043Z,22.58
2023-01-15T03:30:41.852Z,22.48
2023-01-15T03:31:43.910Z,25.30
2023-01-15T03:32:46.285Z,25.23
2023-01-15T03:33:48.192Z,24.50
2023-01-15T03:34:53.424Z,24.73
2023-01-15T03:35:58.582Z,28.20
2023-01-15T03:37:00.356Z,21.63
2023-01-15T03:38:02.133Z,22.48
2023-01-15T03:39:05.049Z,24.30
2023-01-15T03:40:07.758Z,27.50
2023-01-15T03:41:19.233Z,27.70
2023-01-15T03:42:45.633Z,24.02
2023-01-15T03:43:52.561Z,24.25
2023-01-15T03:45:07.071Z,26.37
2023-01-15T03:46:28.441Z,21.23
2023-01-15T03:47:41.269Z,21.52
2023-01-15T03:48:56.039Z,22.00
2023-01-15T03:50:26.062Z,23.08
2023-01-15T03:52:01.539Z,23.48
2023-01-15T03:53:09.368Z,28.63
2023-01-15T03:54:22.136Z,27.30
2023-01-15T03:55:43.587Z,31.10
2023-01-15T03:56:53.984Z,31.30
2023-01-15T03:58:19.052Z,33.30
2023-01-15T03:59:33.066Z,28.77
2023-01-15T04:01:04.354Z,50.90
2023-01-15T04:02:11.376Z,33.15
2023-01-15T04:03:14.170Z,26.00
2023-01-15T04:04:16.677Z,25.30
2023-01-15T04:05:18.988Z,26.80
2023-01-15T04:06:21.803Z,27.60
2023-01-15T04:07:25.016Z,26.58
2023-01-15T04:08:31.255Z,26.00
2023-01-15T04:09:38.503Z,27.17
2023-01-15T04:10:55.006Z,24.13
2023-01-15T04:12:00.807Z,23.33
2023-01-15T04:13:02.573Z,25.60
2023-01-15T04:14:04.959Z,24.58
2023-01-15T04:15:07.584Z,24.85
2023-01-15T04:16:09.748Z,22.05
2023-01-15T04:17:11.515Z,21.95
2023-01-15T04:18:13.351Z,20.60
2023-01-15T04:19:15.139Z,27.67
2023-01-15T04:20:18.411Z,26.60
2023-01-15T04:21:21.343Z,25.52
2023-01-15T04:22:23.105Z,25.92
2023-01-15T04:23:24.969Z,24.98
2023-01-15T04:24:26.852Z,26.90
2023-01-15T04:25:28.643Z,24.77
2023-01-15T04:26:30.401Z,24.38
2023-01-15T04:27:32.416Z,28.25
2023-01-15T04:28:34.411Z,23.00
2023-01-15T04:29:36.197Z,23.35
2023-01-15T04:30:38.058Z,28.60
2023-01-15T04:31:40.049Z,29.83
2023-01-15T04:32:41.784Z,26.40
2023-01-15T04:33:43.643Z,29.02
2023-01-15T04:34:45.689Z,34.08
2023-01-15T04:35:47.433Z,30.15
2023-01-15T04:36:49.157Z,29.10
2023-01-15T04:37:58.633Z,35.28
2023-01-15T04:39:00.419Z,27.90
2023-01-15T04:40:02.136Z,31.70
2023-01-15T04:41:05.126Z,29.10
2023-01-15T04:42:06.934Z,30.58
2023-01-15T04:43:11.784Z,28.05
2023-01-15T04:44:13.786Z,29.40
2023-01-15T04:45:15.758Z,27.63
2023-01-15T04:46:24.129Z,30.15
2023-01-15T04:47:25.908Z,26.95
2023-01-15T04:48:27.693Z,28.20
2023-01-15T04:49:29.410Z,23.75
2023-01-15T04:50:31.129Z,27.02
2023-01-15T04:51:33.079Z,29.00
2023-01-15T04:52:34.756Z,28.63
2023-01-15T04:53:36.641Z,24.17
2023-01-15T04:54:38.495Z,23.33
2023-01-15T04:55:40.241Z,26.17
2023-01-15T04:56:48.170Z,23.50
2023-01-15T04:57:50.464Z,25.10
2023-01-15T04:58:52.201Z,23.77
2023-01-15T04:59:53.917Z,23.48
2023-01-15T05:00:55.706Z,22.92
2023-01-15T05:02:04.644Z,21.97
2023-01-15T05:03:07.961Z,25.90
2023-01-15T05:04:09.899Z,22.98
2023-01-15T05:05:11.663Z,25.38
2023-01-15T05:06:13.419Z,25.02
2023-01-15T05:07:15.218Z,23.80
2023-01-15T05:08:17.103Z,24.05
2023-01-15T05:09:19.048Z,27.58
2023-01-15T05:10:20.827Z,23.25
2023-01-15T05:11:22.722Z,22.10
2023-01-15T05:12:24.511Z,25.57
2023-01-15T05:13:26.357Z,28.38
2023-01-15T05:14:28.221Z,25.27
2023-01-15T05:15:30.272Z,23.77
2023-01-15T05:16:32.573Z,23.48
2023-01-15T05:17:34.594Z,21.77
2023-01-15T05:18:36.447Z,25.20
2023-01-15T05:19:38.129Z,28.90
2023-01-15T05:20:39.871Z,28.52
2023-01-15T05:21:44.021Z,29.42
2023-01-15T05:22:45.821Z,34.83
2023-01-15T05:23:49.185Z,35.15
2023-01-15T05:24:51.062Z,39.17
2023-01-15T05:25:52.819Z,37.65
2023-01-15T05:26:54.534Z,35.10
2023-01-15T05:27:56.287Z,35.58
2023-01-15T05:28:59.966Z,29.02
2023-01-15T05:30:01.803Z,38.42
2023-01-15T05:31:12.060Z,45.55
2023-01-15T05:32:13.982Z,37.10
2023-01-15T05:33:15.737Z,34.83
2023-01-15T05:34:17.467Z,35.45
2023-01-15T05:35:19.323Z,37.17
2023-01-15T05:36:31.501Z,36.60
2023-01-15T05:37:33.321Z,29.38
2023-01-15T05:38:35.314Z,32.25
2023-01-15T05:39:37.202Z,26.92
2023-01-15T05:40:38.900Z,31.35
2023-01-15T05:41:40.967Z,34.60
2023-01-15T05:42:42.688Z,31.48
2023-01-15T05:43:44.483Z,34.40
2023-01-15T05:44:46.253Z,35.13
2023-01-15T05:45:48.037Z,34.03
2023-01-15T05:46:51.512Z,37.63
2023-01-15T05:47:53.981Z,35.30
2023-01-15T05:49:00.397Z,31.00
2023-01-15T05:50:02.164Z,29.00
2023-01-15T05:51:04.092Z,33.20
2023-01-15T05:52:06.203Z,30.08
2023-01-15T05:53:08.204Z,31.45
2023-01-15T05:54:14.175Z,30.60
2023-01-15T05:55:15.995Z,29.80
2023-01-15T05:56:17.956Z,31.35
2023-01-15T05:57:19.866Z,30.33
2023-01-15T05:58:21.621Z,34.10
2023-01-15T05:59:26.152Z,36.50
2023-01-15T06:00:30.378Z,28.23
2023-01-15T06:01:32.454Z,33.25
2023-01-15T06:02:34.187Z,32.53
2023-01-15T06:03:36.348Z,32.22
2023-01-15T06:04:38.154Z,35.97
2023-01-15T06:05:39.863Z,36.80
2023-01-15T06:06:43.283Z,29.90
2023-01-15T06:07:45.046Z,34.30
2023-01-15T06:08:47.191Z,36.90
2023-01-15T06:09:48.918Z,33.97
2023-01-15T06:10:51.044Z,33.25
2023-01-15T06:11:52.815Z,31.75
2023-01-15T06:12:54.526Z,29.15
2023-01-15T06:13:56.289Z,31.92
2023-01-15T06:14:58.082Z,29.53
2023-01-15T06:16:01.255Z,38.17
2023-01-15T06:17:03.060Z,32.38
2023-01-15T06:18:04.996Z,31.15
2023-01-15T06:19:08.145Z,37.10
2023-01-15T06:20:10.746Z,42.35
2023-01-15T06:21:13.943Z,47.20
2023-01-15T06:22:15.934Z,41.35
2023-01-15T06:23:18.513Z,42.33
2023-01-15T06:24:20.268Z,45.25
2023-01-15T06:25:22.287Z,39.90
2023-01-15T06:26:24.738Z,40.28
2023-01-15T06:27:26.512Z,39.28
2023-01-15T06:28:28.878Z,44.63
2023-01-15T06:29:30.562Z,39.40
2023-01-15T06:30:32.731Z,37.15
2023-01-15T06:31:34.483Z,41.10
2023-01-15T06:32:36.299Z,38.10
2023-01-15T06:33:38.433Z,35.30
2023-01-15T06:34:40.135Z,35.78
2023-01-15T06:35:41.885Z,35.80
2023-01-15T06:36:43.680Z,36.95
2023-01-15T06:37:45.450Z,34.15
2023-01-15T06:38:47.915Z,36.25
2023-01-15T06:39:49.626Z,39.83
2023-01-15T06:40:51.374Z,39.95
2023-01-15T06:41:53.118Z,41.60
2023-01-15T06:42:58.996Z,45.17
2023-01-15T06:44:00.859Z,42.20
2023-01-15T06:45:02.887Z,40.75
2023-01-15T06:46:04.725Z,35.83
2023-01-15T06:47:17.434Z,36.15
2023-01-15T06:48:19.127Z,38.63
2023-01-15T06:49:20.853Z,39.17
2023-01-15T06:50:22.906Z,39.83
2023-01-15T06:51:25.291Z,41.80
2023-01-15T06:52:29.541Z,37.45
2023-01-15T06:53:31.549Z,38.30
2023-01-15T06:54:34.539Z,41.00
2023-01-15T06:55:36.261Z,36.88
2023-01-15T06:56:37.978Z,42.97
2023-01-15T06:57:40.412Z,39.78
2023-01-15T06:58:43.402Z,39.33
2023-01-15T06:59:45.275Z,43.08
2023-01-15T07:00:47.030Z,45.58
2023-01-15T07:01:48.882Z,40.75
2023-01-15T07:02:51.312Z,40.28
2023-01-15T07:03:53.201Z,43.70
2023-01-15T07:04:54.967Z,42.38
2023-01-15T07:05:56.805Z,40.05
2023-01-15T07:06:58.562Z,43.87
2023-01-15T07:08:00.442Z,43.10
2023-01-15T07:09:02.140Z,39.22
2023-01-15T07:10:04.034Z,44.35
2023-01-15T07:11:07.975Z,44.83
2023-01-15T07:12:09.699Z,55.53
2023-01-15T07:13:11.394Z,47.75
2023-01-15T07:14:13.990Z,49.15
2023-01-15T07:15:15.863Z,42.22
2023-01-15T07:16:17.668Z,42.72
2023-01-15T07:17:19.976Z,41.33
2023-01-15T07:18:21.776Z,42.92
2023-01-15T07:19:23.461Z,43.67
2023-01-15T07:20:25.327Z,38.22
2023-01-15T07:21:27.238Z,45.55
2023-01-15T07:22:29.365Z,45.65
2023-01-15T07:23:31.128Z,48.75
2023-01-15T07:24:33.729Z,54.30
2023-01-15T07:25:35.445Z,60.25
2023-01-15T07:26:37.390Z,47.17
2023-01-15T07:27:39.207Z,49.10
2023-01-15T07:28:41.041Z,48.45
2023-01-15T07:29:42.911Z,39.17
2023-01-15T07:30:44.593Z,38.42
2023-01-15T07:31:46.391Z,44.25
2023-01-15T07:32:48.075Z,59.40
2023-01-15T07:33:49.859Z,40.33
2023-01-15T07:34:51.564Z,41.53
2023-01-15T07:35:53.271Z,46.88
2023-01-15T07:36:54.974Z,55.17
2023-01-15T07:37:56.763Z,45.30
2023-01-15T07:38:58.679Z,44.97
2023-01-15T07:40:00.463Z,49.38
2023-01-15T07:41:02.216Z,50.15
2023-01-15T07:42:04.035Z,42.97
2023-01-15T07:43:05.820Z,42.20
2023-01-15T07:44:10.669Z,42.58
2023-01-15T07:45:12.381Z,35.70
2023-01-15T07:46:14.126Z,32.22
2023-01-15T07:47:20.362Z,40.55
2023-01-15T07:48:22.074Z,36.60
2023-01-15T07:49:23.792Z,38.45
2023-01-15T07:50:25.894Z,43.90
2023-01-15T07:51:27.553Z,75.90
2023-01-15T07:52:29.335Z,57.92
2023-01-15T07:53:31.143Z,60.78
2023-01-15T07:54:32.854Z,59.58
2023-01-15T07:55:36.199Z,74.15
2023-01-15T07:56:38.343Z,83.72
2023-01-15T07:57:41.353Z,54.42
2023-01-15T07:58:43.053Z,42.03
2023-01-15T07:59:44.989Z,36.33
2023-01-15T08:00:46.748Z,41.00
2023-01-15T08:01:48.751Z,46.47
2023-01-15T08:02:50.953Z,44.80
2023-01-15T08:03:53.139Z,42.83
2023-01-15T08:04:54.996Z,40.70
2023-01-15T08:05:57.139Z,41.90
2023-01-15T08:07:02.959Z,35.85
2023-01-15T08:08:04.841Z,38.17
2023-01-15T08:09:06.543Z,35.33
2023-01-15T08:10:10.219Z,40.72
2023-01-15T08:11:12.064Z,30.85
2023-01-15T08:12:13.736Z,29.77
2023-01-15T08:13:15.423Z,32.15
2023-01-15T08:14:17.206Z,26.08
2023-01-15T08:15:18.880Z,27.73
2023-01-15T08:16:20.654Z,27.20
2023-01-15T08:17:22.352Z,29.77
2023-01-15T08:18:24.041Z,26.00
2023-01-15T08:19:25.740Z,29.83
2023-01-15T08:20:27.619Z,29.77
2023-01-15T08:21:29.450Z,27.00
2023-01-15T08:22:31.304Z,27.55
2023-01-15T08:23:33.007Z,23.25
2023-01-15T08:24:34.735Z,25.95
2023-01-15T08:25:36.474Z,21.70
2023-01-15T08:26:38.202Z,24.48
2023-01-15T08:27:40.951Z,29.73
2023-01-15T08:28:42.776Z,29.65
2023-01-15T08:29:44.784Z,30.27
2023-01-15T08:30:46.480Z,30.23
2023-01-15T08:31:48.735Z,25.73
2023-01-15T08:32:50.557Z,23.77
2023-01-15T08:33:52.240Z,22.42
2023-01-15T08:34:53.996Z,23.95
2023-01-15T08:35:57.633Z,24.20
2023-01-15T08:36:59.328Z,20.80
2023-01-15T08:38:05.801Z,22.95
2023-01-15T08:39:07.579Z,22.20
2023-01-15T08:40:11.305Z,19.07
2023-01-15T08:41:13.004Z,22.25
2023-01-15T08:42:14.837Z,21.60
2023-01-15T08:43:16.533Z,21.73
2023-01-15T08:44:18.238Z,24.20
2023-01-15T08:45:19.903Z,21.13
2023-01-15T08:46:21.701Z,21.55
2023-01-15T08:47:23.460Z,18.55
2023-01-15T08:48:26.214Z,18.38
2023-01-15T08:49:27.996Z,21.30
2023-01-15T08:50:29.686Z,26.00
2023-01-15T08:51:31.344Z,20.42
2023-01-15T08:52:33.100Z,19.27
2023-01-15T08:53:35.312Z,24.50
2023-01-15T08:54:37.172Z,31.42
2023-01-15T08:55:38.923Z,29.58
2023-01-15T08:56:40.686Z,25.48
2023-01-15T08:57:42.380Z,24.73
2023-01-15T08:58:45.371Z,21.17
2023-01-15T08:59:47.959Z,30.00
2023-01-15T09:00:49.711Z,33.50
2023-01-15T09:01:51.539Z,28.20
2023-01-15T09:02:53.296Z,33.55
2023-01-15T09:03:54.996Z,23.73
2023-01-15T09:04:56.789Z,26.60
2023-01-15T09:05:59.753Z,22.70
2023-01-15T09:07:01.761Z,27.00
2023-01-15T09:08:05.310Z,34.78
2023-01-15T09:09:07.680Z,45.80
2023-01-15T09:10:09.983Z,44.47
2023-01-15T09:11:11.710Z,27.90
2023-01-15T09:12:13.529Z,25.38
2023-01-15T09:13:15.341Z,25.70
2023-01-15T09:14:55.927Z,21.23
2023-01-15T09:15:38.731Z,22.05
2023-01-15T09:16:41.122Z,21.80
2023-01-15T09:17:43.114Z,20.98
2023-01-15T09:18:44.866Z,21.48
2023-01-15T09:19:46.673Z,22.80
2023-01-15T09:20:48.633Z,22.45
2023-01-15T09:21:50.349Z,19.93
2023-01-15T09:22:52.574Z,24.20
2023-01-15T09:23:54.424Z,20.33
2023-01-15T09:24:56.273Z,23.35
2023-01-15T09:26:00.469Z,20.00
2023-01-15T09:27:02.198Z,21.77
2023-01-15T09:28:04.156Z,20.95
2023-01-15T09:29:07.289Z,22.17
2023-01-15T09:30:14.799Z,22.13
2023-01-15T09:31:16.528Z,19.75
2023-01-15T09:32:18.252Z,20.43
2023-01-15T09:33:20.401Z,20.88
2023-01-15T09:34:22.220Z,21.83
2023-01-15T09:35:24.136Z,18.90
2023-01-15T09:36:33.613Z,20.55
2023-01-15T09:37:35.355Z,21.73
2023-01-15T09:38:37.025Z,21.38
2023-01-15T09:39:39.020Z,22.42
2023-01-15T09:40:46.805Z,22.75
2023-01-15T09:41:51.582Z,23.42
2023-01-15T09:43:02.683Z,21.03
2023-01-15T09:44:33.245Z,23.27
2023-01-15T09:45:44.711Z,24.67
2023-01-15T09:47:11.444Z,22.73
2023-01-15T09:48:38.085Z,22.65
2023-01-15T09:50:00.622Z,26.02
2023-01-15T09:51:24.054Z,24.00
2023-01-15T09:52:49.748Z,24.83
2023-01-15T09:54:43.729Z,20.80
2023-01-15T09:55:50.274Z,25.17
2023-01-15T09:56:54.133Z,24.80
2023-01-15T09:58:00.029Z,23.58
2023-01-15T09:59:13.288Z,20.38
2023-01-15T10:00:24.700Z,20.27
2023-01-15T10:01:30.557Z,20.52
2023-01-15T10:02:43.714Z,20.30
2023-01-15T10:03:52.755Z,23.40
2023-01-15T10:05:15.721Z,25.27
2023-01-15T10:06:23.884Z,27.30
2023-01-15T10:07:51.513Z,23.48
2023-01-15T10:09:11.858Z,22.57
2023-01-15T10:10:21.562Z,19.50
2023-01-15T10:11:31.613Z,24.85
2023-01-15T10:12:38.310Z,20.27
2023-01-15T10:13:47.809Z,29.77
2023-01-15T10:15:02.101Z,26.63
2023-01-15T10:16:04.265Z,22.00
2023-01-15T10:17:19.606Z,21.10
2023-01-15T10:18:24.162Z,29.98
2023-01-15T10:19:34.414Z,33.05
2023-01-15T10:21:05.650Z,18.60
2023-01-15T10:22:18.702Z,17.00
2023-01-15T10:23:42.125Z,17.30
2023-01-15T10:24:58.122Z,22.23
2023-01-15T10:26:07.237Z,20.25
2023-01-15T10:27:18.684Z,16.08
2023-01-15T10:29:00.531Z,18.42
2023-01-15T10:30:19.696Z,20.80
2023-01-15T10:31:27.095Z,32.13
2023-01-15T10:33:01.173Z,43.28
2023-01-15T10:34:24.359Z,37.70
2023-01-15T10:35:40.879Z,40.83
2023-01-15T10:36:48.602Z,40.45
2023-01-15T10:37:54.498Z,27.35
2023-01-15T10:39:14.032Z,24.23
2023-01-15T10:40:52.278Z,31.50
2023-01-15T10:42:26.306Z,19.55
2023-01-15T10:43:44.791Z,15.07
2023-01-15T10:45:01.826Z,14.90
2023-01-15T10:46:19.505Z,19.35
2023-01-15T10:47:29.258Z,22.47
2023-01-15T10:48:51.460Z,23.63
2023-01-15T10:49:53.455Z,21.58
2023-01-15T10:50:58.250Z,16.40
2023-01-15T10:52:08.014Z,25.05
2023-01-15T10:53:35.323Z,12.98
2023-01-15T10:54:42.583Z,13.95
2023-01-15T10:55:52.783Z,19.02
2023-01-15T10:57:03.706Z,13.80
2023-01-15T10:58:14.684Z,18.90
2023-01-15T10:59:34.673Z,16.87
2023-01-15T11:00:38.679Z,13.98
2023-01-15T11:01:40.956Z,19.23
2023-01-15T11:02:45.054Z,17.90
2023-01-15T11:03:47.438Z,20.77
2023-01-15T11:04:49.168Z,22.50
2023-01-15T11:05:50.920Z,19.67
2023-01-15T11:06:52.821Z,19.95
2023-01-15T11:08:45.196Z,17.35
2023-01-15T11:09:23.472Z,19.50
2023-01-15T11:10:25.167Z,16.93
2023-01-15T11:11:36.014Z,20.15
2023-01-15T11:12:39.546Z,14.63
2023-01-15T11:13:53.115Z,17.17
2023-01-15T11:14:54.805Z,16.50
2023-01-15T11:15:56.717Z,15.52
2023-01-15T11:16:58.437Z,17.42
2023-01-15T11:18:03.077Z,15.48
2023-01-15T11:19:24.490Z,16.42
2023-01-15T11:20:35.207Z,15.68
2023-01-15T11:21:42.406Z,21.17
2023-01-15T11:22:45.029Z,17.42
2023-01-15T11:23:48.140Z,15.95
2023-01-15T11:24:58.950Z,17.55
2023-01-15T11:26:01.119Z,15.27
2023-01-15T11:27:03.283Z,16.35
2023-01-15T11:28:07.331Z,14.77
2023-01-15T11:29:16.051Z,14.70
2023-01-15T11:30:34.264Z,16.63
2023-01-15T11:31:37.766Z,15.30
2023-01-15T11:32:39.696Z,16.73
2023-01-15T11:33:57.656Z,15.57
2023-01-15T11:35:02.257Z,15.02
2023-01-15T11:36:23.326Z,13.43
2023-01-15T11:37:25.629Z,20.67
2023-01-15T11:38:29.773Z,19.23
2023-01-15T11:39:32.132Z,13.00
2023-01-15T11:40:34.379Z,14.20
2023-01-15T11:41:36.281Z,13.27
2023-01-15T11:42:39.131Z,14.98
2023-01-15T11:43:41.772Z,11.70
2023-01-15T11:44:53.405Z,14.35
2023-01-15T11:45:55.304Z,14.18
2023-01-15T11:46:57.088Z,13.30
2023-01-15T11:47:58.833Z,19.02
2023-01-15T11:49:00.510Z,16.73
2023-01-15T11:50:02.422Z,26.05
2023-01-15T11:51:14.192Z,16.67
2023-01-15T11:52:24.464Z,12.05
2023-01-15T11:53:29.377Z,16.15
2023-01-15T11:54:36.190Z,14.53
2023-01-15T11:55:38.035Z,15.30
2023-01-15T11:56:44.245Z,14.63
2023-01-15T11:57:47.475Z,15.32
2023-01-15T11:58:53.462Z,17.50
2023-01-15T11:59:55.275Z,23.30
2023-01-15T12:00:57.282Z,15.43
2023-01-15T12:02:25.164Z,17.25
2023-01-15T12:03:34.684Z,14.98
2023-01-15T12:04:38.421Z,13.77
2023-01-15T12:05:47.467Z,18.90
2023-01-15T12:06:49.244Z,13.48
2023-01-15T12:07:57.345Z,13.82
2023-01-15T12:09:30.098Z,14.82
2023-01-15T12:10:52.981Z,10.60
2023-01-15T12:12:12.554Z,11.43
2023-01-15T12:13:52.400Z,18.13
2023-01-15T12:14:54.093Z,12.27
2023-01-15T12:16:24.806Z,18.95
2023-01-15T12:18:11.614Z,9.90
2023-01-15T12:19:23.098Z,15.50
2023-01-15T12:20:56.667Z,16.00
2023-01-15T12:22:25.609Z,12.55
2023-01-15T12:23:36.088Z,10.32
2023-01-15T12:24:50.942Z,11.95
2023-01-15T12:26:14.309Z,11.15
2023-01-15T12:27:40.621Z,17.50
2023-01-15T12:29:01.860Z,14.15
2023-01-15T12:30:30.513Z,14.32
2023-01-15T12:31:51.138Z,9.75
2023-01-15T12:33:06.817Z,11.67
2023-01-15T12:34:14.660Z,11.43
2023-01-15T12:35:33.532Z,16.50
2023-01-15T12:37:59.863Z,18.42
2023-01-15T12:39:07.872Z,12.77
2023-01-15T12:40:15.491Z,16.67
2023-01-15T12:41:24.814Z,12.77
2023-01-15T12:42:30.373Z,14.75
2023-01-15T12:43:32.197Z,11.05
2023-01-15T12:44:58.852Z,11.07
2023-01-15T12:46:02.860Z,14.13
2023-01-15T12:47:12.098Z,11.50
2023-01-15T12:48:33.535Z,14.38
2023-01-15T12:49:49.649Z,11.20
2023-01-15T12:50:54.298Z,12.20
2023-01-15T12:52:19.770Z,14.63
2023-01-15T12:53:39.938Z,17.75
2023-01-15T12:54:58.478Z,9.65
2023-01-15T12:56:27.479Z,15.15
2023-01-15T12:57:36.620Z,13.87
2023-01-15T12:59:03.002Z,9.50
2023-01-15T13:00:20.241Z,12.20
2023-01-15T13:01:31.886Z,9.13
2023-01-15T13:03:02.121Z,12.05
2023-01-15T13:04:18.385Z,13.15
2023-01-15T13:05:45.260Z,9.85
2023-01-15T13:06:52.108Z,11.85
2023-01-15T13:08:12.567Z,11.35
2023-01-15T13:09:34.443Z,13.77
2023-01-15T13:10:40.820Z,14.07
2023-01-15T13:11:42.640Z,16.52
2023-01-15T13:12:44.352Z,13.82
2023-01-15T13:13:46.157Z,15.15
2023-01-15T13:14:48.008Z,12.80
2023-01-15T13:16:22.914Z,17.73
2023-01-15T13:18:05.153Z,13.57
2023-01-15T13:19:24.852Z,13.55
2023-01-15T13:20:48.865Z,16.10
2023-01-15T13:21:55.488Z,16.13
2023-01-15T13:23:09.691Z,16.40
2023-01-15T13:24:37.308Z,10.65
2023-01-15T13:26:07.897Z,10.40
2023-01-15T13:27:30.181Z,13.32
2023-01-15T13:29:01.827Z,10.63
2023-01-15T13:30:31.875Z,10.00
2023-01-15T13:31:51.952Z,9.90
2023-01-15T13:32:59.832Z,13.90
2023-01-15T13:34:08.308Z,10.52
2023-01-15T13:35:35.787Z,10.55
2023-01-15T13:36:45.552Z,13.00
2023-01-15T13:37:51.451Z,12.73
2023-01-15T13:38:57.384Z,14.15
2023-01-15T13:40:18.143Z,11.52
2023-01-15T13:41:25.681Z,15.15
2023-01-15T13:42:28.686Z,9.82
2023-01-15T13:43:39.870Z,10.48
2023-01-15T13:44:52.762Z,9.27
2023-01-15T13:45:56.428Z,11.70
2023-01-15T13:47:23.840Z,13.70
2023-01-15T13:48:41.084Z,11.83
2023-01-15T13:49:53.101Z,8.98
2023-01-15T13:51:00.251Z,8.43
2023-01-15T13:52:04.844Z,11.18
2023-01-15T13:53:22.280Z,12.50
2023-01-15T13:54:28.292Z,13.45
2023-01-15T13:55:34.553Z,10.40
2023-01-15T13:56:36.368Z,11.07
2023-01-15T13:57:40.438Z,10.80
2023-01-15T13:58:57.608Z,9.63
2023-01-15T13:59:59.310Z,12.60
2023-01-15T14:01:22.758Z,11.52
2023-01-15T14:02:33.332Z,27.30
2023-01-15T14:03:37.457Z,15.35
2023-01-15T14:04:40.467Z,9.10
2023-01-15T14:05:42.307Z,11.60
2023-01-15T14:06:50.108Z,17.98
2023-01-15T14:07:51.941Z,36.92
2023-01-15T14:08:53.627Z,35.35
2023-01-15T14:09:55.565Z,27.45
2023-01-15T14:10:57.386Z,18.10
2023-01-15T14:12:09.133Z,13.95
2023-01-15T14:13:38.175Z,16.40
2023-01-15T14:14:39.797Z,16.27
2023-01-15T14:15:41.431Z,10.60
2023-01-15T14:16:53.958Z,18.17
2023-01-15T14:18:08.792Z,13.70
2023-01-15T14:19:22.591Z,16.58
2023-01-15T14:20:33.561Z,10.65
2023-01-15T14:21:55.459Z,11.32
2023-01-15T14:23:12.747Z,13.33